Terminal Aerodrome Forecast
Issued by NWS

Home | Current Version | Previous Version | Text Only | Print | Product List | Glossary On
Versions: 1 2 3 4 5 6 7 8 9 10 11 12 13 14 15 16 17
000
FTUS45 KABQ 031129
TAFGUP
TAF
KGUP 031129Z 0312/0412 11004KT P6SM BKN200
     FM031800 20007KT P6SM VCSH BKN070
     FM032100 21009KT P6SM VCTS BKN070CB
     FM040100 20007KT P6SM VCSH BKN070
     FM040600 17003KT P6SM BKN120=

USA.gov is the U.S. government's official web portal to all federal, state and local government web resources and services.